createdAt,value
2019-04-04T00:01:07.904Z,26.63
2019-04-04T00:03:37.630Z,28.63
2019-04-04T00:06:07.591Z,31.07
2019-04-04T00:08:37.419Z,32.90
2019-04-04T00:11:07.177Z,34.13
2019-04-04T00:13:37.016Z,32.37
2019-04-04T00:16:06.881Z,30.30
2019-04-04T00:18:36.610Z,38.40
2019-04-04T00:21:06.372Z,29.60
2019-04-04T00:23:38.028Z,30.43
2019-04-04T00:26:08.901Z,30.83
2019-04-04T00:28:58.034Z,31.30
2019-04-04T00:31:27.933Z,29.07
2019-04-04T00:33:57.765Z,41.60
2019-04-04T00:36:27.623Z,64.73
2019-04-04T00:38:57.490Z,50.13
2019-04-04T00:41:27.357Z,43.13
2019-04-04T00:43:57.193Z,37.53
2019-04-04T00:46:27.067Z,55.20
2019-04-04T00:48:56.800Z,37.80
2019-04-04T00:51:26.569Z,33.93
2019-04-04T00:53:56.337Z,32.13
2019-04-04T00:56:26.190Z,32.30
2019-04-04T00:58:56.020Z,34.90
2019-04-04T01:01:26.963Z,38.27
2019-04-04T01:03:57.007Z,27.80
2019-04-04T01:06:26.871Z,31.20
2019-04-04T01:08:57.598Z,33.87
2019-04-04T01:11:27.466Z,31.10
2019-04-04T01:13:57.828Z,32.00
2019-04-04T01:16:28.157Z,37.77
2019-04-04T01:18:59.326Z,35.63
2019-04-04T01:21:29.500Z,32.27
2019-04-04T01:24:00.664Z,29.17
2019-04-04T01:26:33.144Z,36.00
2019-04-04T01:29:05.634Z,29.17
2019-04-04T01:31:34.908Z,30.37
2019-04-04T01:34:04.740Z,30.23
2019-04-04T01:36:35.338Z,29.60
2019-04-04T01:39:06.366Z,29.07
2019-04-04T01:41:36.977Z,31.80
2019-04-04T01:44:10.776Z,31.10
2019-04-04T01:46:38.874Z,52.10
2019-04-04T01:49:08.601Z,43.70
2019-04-04T01:51:38.494Z,32.00
2019-04-04T01:54:08.257Z,44.90
2019-04-04T01:56:38.027Z,44.90
2019-04-04T01:59:07.885Z,41.80
2019-04-04T02:01:37.720Z,32.50
2019-04-04T02:04:07.586Z,32.63
2019-04-04T02:06:37.335Z,32.73
2019-04-04T02:09:07.602Z,37.60
2019-04-04T02:11:37.971Z,32.87
2019-04-04T02:14:07.875Z,31.30
2019-04-04T02:16:37.711Z,35.23
2019-04-04T02:19:08.896Z,29.27
2019-04-04T02:21:38.644Z,32.70
2019-04-04T02:24:08.502Z,42.43
2019-04-04T02:26:38.341Z,42.17
2019-04-04T02:29:09.043Z,27.57
2019-04-04T02:31:41.302Z,31.93
2019-04-04T02:34:11.171Z,30.47
2019-04-04T02:36:41.003Z,33.57
2019-04-04T02:39:13.829Z,34.93
2019-04-04T02:41:47.826Z,32.93
2019-04-04T02:44:15.215Z,31.63
2019-04-04T02:46:45.804Z,29.63
2019-04-04T02:49:15.811Z,36.70
2019-04-04T02:51:46.074Z,86.40
2019-04-04T02:54:15.843Z,48.70
2019-04-04T02:56:45.564Z,37.97
2019-04-04T02:59:19.976Z,38.27
2019-04-04T03:01:46.859Z,35.20
2019-04-04T03:04:16.631Z,34.87
2019-04-04T03:06:46.452Z,34.77
2019-04-04T03:09:16.203Z,37.57
2019-04-04T03:11:46.045Z,36.63
2019-04-04T03:14:15.898Z,37.27
2019-04-04T03:16:45.605Z,38.93
2019-04-04T03:19:15.483Z,33.23
2019-04-04T03:21:45.318Z,34.80
2019-04-04T03:24:15.093Z,38.27
2019-04-04T03:26:44.922Z,36.10
2019-04-04T03:29:14.700Z,37.03
2019-04-04T03:31:44.565Z,33.13
2019-04-04T03:34:14.415Z,36.27
2019-04-04T03:36:44.281Z,35.10
2019-04-04T03:39:14.009Z,34.40
2019-04-04T03:41:43.775Z,41.33
2019-04-04T03:44:13.606Z,31.37
2019-04-04T03:46:43.457Z,35.47
2019-04-04T03:49:13.190Z,29.53
2019-04-04T03:51:42.951Z,82.00
2019-04-04T03:54:14.249Z,73.97
2019-04-04T03:56:44.119Z,77.07
2019-04-04T03:59:13.859Z,46.27
2019-04-04T04:01:46.507Z,43.47
2019-04-04T04:04:15.234Z,38.27
2019-04-04T04:06:45.006Z,39.43
2019-04-04T04:09:14.729Z,35.07
2019-04-04T04:11:44.611Z,40.90
2019-04-04T04:14:14.442Z,40.60
2019-04-04T04:16:44.205Z,37.43
2019-04-04T04:19:13.936Z,37.03
2019-04-04T04:21:43.925Z,43.83
2019-04-04T04:24:13.818Z,48.53
2019-04-04T04:26:43.594Z,46.77
2019-04-04T04:29:13.304Z,45.87
2019-04-04T04:31:43.073Z,37.43
2019-04-04T04:34:12.890Z,38.60
2019-04-04T04:36:42.752Z,32.77
2019-04-04T04:39:12.470Z,35.80
2019-04-04T04:41:42.233Z,34.07
2019-04-04T04:44:11.971Z,37.83
2019-04-04T04:46:41.747Z,38.03
2019-04-04T04:49:11.475Z,33.53
2019-04-04T04:51:44.095Z,42.47
2019-04-04T04:54:12.808Z,34.23
2019-04-04T04:56:42.664Z,34.50
2019-04-04T04:59:13.325Z,40.30
2019-04-04T05:01:43.730Z,38.57
2019-04-04T05:04:13.656Z,40.03
2019-04-04T05:06:43.529Z,33.73
2019-04-04T05:09:14.155Z,58.23
2019-04-04T05:11:44.610Z,33.37
2019-04-04T05:14:14.436Z,40.53
2019-04-04T05:16:44.193Z,156.07
2019-04-04T05:19:13.958Z,31.33
2019-04-04T05:21:43.822Z,30.83
2019-04-04T05:24:13.591Z,41.40
2019-04-04T05:26:43.301Z,23.97
2019-04-04T05:29:14.061Z,33.50
2019-04-04T05:31:43.977Z,41.03
2019-04-04T05:34:13.762Z,35.33
2019-04-04T05:36:43.555Z,31.53
2019-04-04T05:39:13.418Z,36.23
2019-04-04T05:41:43.142Z,39.07
2019-04-04T05:44:12.994Z,36.30
2019-04-04T05:46:42.732Z,37.03
2019-04-04T05:49:12.583Z,52.50
2019-04-04T05:51:42.392Z,35.87
2019-04-04T05:54:12.250Z,31.43
2019-04-04T05:56:44.401Z,33.60
2019-04-04T05:59:13.665Z,40.57
2019-04-04T06:01:43.525Z,39.67
2019-04-04T06:04:13.311Z,33.07
2019-04-04T06:06:43.130Z,35.40
2019-04-04T06:09:14.719Z,34.77
2019-04-04T06:11:44.690Z,33.27
2019-04-04T06:14:14.449Z,35.33
2019-04-04T06:16:44.169Z,32.17
2019-04-04T06:19:14.838Z,33.07
2019-04-04T06:21:44.739Z,29.13
2019-04-04T06:24:14.499Z,41.80
2019-04-04T06:26:44.228Z,32.87
2019-04-04T06:29:15.208Z,34.83
2019-04-04T06:31:45.520Z,74.47
2019-04-04T06:34:15.272Z,29.07
2019-04-04T06:36:45.006Z,34.20
2019-04-04T06:39:14.878Z,31.07
2019-04-04T06:41:44.693Z,32.67
2019-04-04T06:44:14.450Z,38.30
2019-04-04T06:46:44.181Z,33.00
2019-04-04T06:49:14.049Z,32.03
2019-04-04T06:51:46.086Z,35.73
2019-04-04T06:54:15.258Z,43.23
2019-04-04T06:56:44.987Z,32.47
2019-04-04T06:59:14.762Z,44.07
2019-04-04T07:01:44.600Z,38.07
2019-04-04T07:04:17.135Z,29.43
2019-04-04T07:06:45.922Z,29.37
2019-04-04T07:09:18.085Z,27.17
2019-04-04T07:11:47.313Z,32.33
2019-04-04T07:14:17.206Z,29.97
2019-04-04T07:16:46.984Z,29.47
2019-04-04T07:19:16.851Z,26.40
2019-04-04T07:21:46.618Z,28.07
2019-04-04T07:24:16.396Z,34.17
2019-04-04T07:26:46.196Z,23.93
2019-04-04T07:29:16.095Z,43.33
2019-04-04T07:31:45.952Z,37.37
2019-04-04T07:34:15.670Z,26.77
2019-04-04T07:36:45.542Z,30.43
2019-04-04T07:39:15.375Z,26.50
2019-04-04T07:41:45.181Z,41.83
2019-04-04T07:44:15.041Z,28.53
2019-04-04T07:46:45.557Z,27.00
2019-04-04T07:49:15.821Z,29.50
2019-04-04T07:51:45.689Z,30.83
2019-04-04T07:54:15.529Z,33.17
2019-04-04T07:56:48.691Z,29.33
2019-04-04T07:59:16.782Z,37.23
2019-04-04T08:01:51.283Z,23.93
2019-04-04T08:04:18.074Z,25.87
2019-04-04T08:06:47.925Z,37.40
2019-04-04T08:09:17.664Z,53.70
2019-04-04T08:11:48.624Z,37.80
2019-04-04T08:14:18.490Z,25.67
2019-04-04T08:16:48.354Z,26.83
2019-04-04T08:19:18.187Z,26.43
2019-04-04T08:21:48.049Z,24.67
2019-04-04T08:24:17.785Z,25.07
2019-04-04T08:26:47.532Z,39.10
2019-04-04T08:29:17.261Z,23.83
2019-04-04T08:31:47.325Z,28.03
2019-04-04T08:34:17.158Z,26.80
2019-04-04T08:36:47.020Z,31.33
2019-04-04T08:39:16.750Z,25.40
2019-04-04T08:41:46.505Z,31.40
2019-04-04T08:44:16.336Z,30.00
2019-04-04T08:46:46.226Z,26.90
2019-04-04T08:49:16.047Z,30.53
2019-04-04T08:51:45.934Z,35.63
2019-04-04T08:54:15.769Z,26.37
2019-04-04T08:56:45.635Z,27.57
2019-04-04T08:59:15.494Z,26.57
2019-04-04T09:01:45.486Z,25.90
2019-04-04T09:04:15.211Z,25.03
2019-04-04T09:06:45.050Z,25.27
2019-04-04T09:09:14.794Z,25.67
2019-04-04T09:11:44.618Z,23.83
2019-04-04T09:14:14.388Z,23.93
2019-04-04T09:16:44.124Z,31.33
2019-04-04T09:19:14.011Z,29.97
2019-04-04T09:21:43.726Z,25.40
2019-04-04T09:24:13.589Z,23.33
2019-04-04T09:26:43.428Z,22.77
2019-04-04T09:29:13.287Z,24.83
2019-04-04T09:31:43.026Z,23.40
2019-04-04T09:34:12.889Z,21.50
2019-04-04T09:36:42.609Z,17.80
2019-04-04T09:39:12.420Z,16.03
2019-04-04T09:41:42.381Z,24.93
2019-04-04T09:44:12.250Z,19.47
2019-04-04T09:46:42.094Z,36.37
2019-04-04T09:49:13.021Z,25.30
2019-04-04T09:51:43.073Z,18.13
2019-04-04T09:54:12.821Z,50.17
2019-04-04T09:56:42.658Z,26.03
2019-04-04T09:59:12.519Z,21.40
2019-04-04T10:01:42.357Z,23.27
2019-04-04T10:04:12.125Z,30.83
2019-04-04T10:06:41.953Z,23.23
2019-04-04T10:09:16.106Z,19.30
2019-04-04T10:11:43.152Z,17.37
2019-04-04T10:14:12.912Z,19.17
2019-04-04T10:16:42.731Z,17.23
2019-04-04T10:19:12.496Z,21.57
2019-04-04T10:21:42.328Z,18.60
2019-04-04T10:24:12.173Z,59.13
2019-04-04T10:26:42.040Z,21.93
2019-04-04T10:29:11.905Z,20.50
2019-04-04T10:31:41.721Z,66.93
2019-04-04T10:34:11.580Z,27.20
2019-04-04T10:36:41.293Z,21.73
2019-04-04T10:39:13.087Z,22.77
2019-04-04T10:41:42.900Z,20.23
2019-04-04T10:44:12.960Z,19.17
2019-04-04T10:46:42.707Z,38.37
2019-04-04T10:49:12.606Z,38.80
2019-04-04T10:51:42.464Z,17.93
2019-04-04T10:54:12.518Z,39.40
2019-04-04T10:56:42.338Z,26.87
2019-04-04T10:59:12.505Z,18.77
2019-04-04T11:01:42.332Z,19.40
2019-04-04T11:04:12.193Z,24.90
2019-04-04T11:06:42.119Z,15.80
2019-04-04T11:09:11.973Z,21.13
2019-04-04T11:11:41.709Z,26.93
2019-04-04T11:14:11.569Z,13.37
2019-04-04T11:16:41.601Z,44.27
2019-04-04T11:19:11.468Z,13.67
2019-04-04T11:21:41.288Z,27.37
2019-04-04T11:24:11.149Z,16.23
2019-04-04T11:26:40.971Z,13.90
2019-04-04T11:29:10.863Z,20.43
2019-04-04T11:31:40.686Z,19.37
2019-04-04T11:34:10.571Z,30.90
2019-04-04T11:36:40.390Z,17.13
2019-04-04T11:39:10.249Z,21.13
2019-04-04T11:41:40.006Z,24.13
2019-04-04T11:44:09.895Z,18.23
2019-04-04T11:46:39.663Z,13.43
2019-04-04T11:49:09.549Z,23.37
2019-04-04T11:51:39.306Z,15.80
2019-04-04T11:54:09.164Z,26.17
2019-04-04T11:56:38.921Z,17.23
2019-04-04T11:59:09.041Z,20.80
2019-04-04T12:01:40.470Z,18.33
2019-04-04T12:04:10.294Z,18.60
2019-04-04T12:06:40.157Z,15.80
2019-04-04T12:09:09.879Z,15.37
2019-04-04T12:11:39.644Z,19.73
2019-04-04T12:14:09.473Z,15.23
2019-04-04T12:16:39.347Z,19.10
2019-04-04T12:19:09.183Z,28.47
2019-04-04T12:21:39.052Z,15.60
2019-04-04T12:24:08.873Z,24.27
2019-04-04T12:26:38.718Z,15.57
2019-04-04T12:29:08.550Z,25.50
2019-04-04T12:31:38.401Z,17.33
2019-04-04T12:34:08.120Z,22.50
2019-04-04T12:36:37.868Z,22.47
2019-04-04T12:39:08.099Z,27.57
2019-04-04T12:41:38.031Z,22.67
2019-04-04T12:44:07.875Z,25.33
2019-04-04T12:46:37.760Z,26.50
2019-04-04T12:49:07.579Z,19.00
2019-04-04T12:51:37.436Z,21.50
2019-04-04T12:54:07.298Z,13.13
2019-04-04T12:56:37.117Z,25.30
2019-04-04T12:59:06.871Z,15.70
2019-04-04T13:01:36.592Z,18.93
2019-04-04T13:04:06.350Z,24.90
2019-04-04T13:06:36.171Z,18.63
2019-04-04T13:09:07.719Z,19.50
2019-04-04T13:11:37.644Z,16.27
2019-04-04T13:14:07.419Z,16.47
2019-04-04T13:16:37.252Z,16.20
2019-04-04T13:19:07.113Z,17.93
2019-04-04T13:21:36.967Z,17.73
2019-04-04T13:24:06.713Z,19.83
2019-04-04T13:26:36.541Z,52.67
2019-04-04T13:29:06.388Z,20.20
2019-04-04T13:31:36.207Z,20.77
2019-04-04T13:34:06.059Z,21.50
2019-04-04T13:36:36.860Z,25.53
2019-04-04T13:39:09.915Z,18.53
2019-04-04T13:41:39.623Z,16.80
2019-04-04T13:44:09.376Z,14.00
2019-04-04T13:46:39.102Z,17.00
2019-04-04T13:49:09.645Z,17.90
2019-04-04T13:51:39.462Z,16.33
2019-04-04T13:54:09.314Z,16.13
2019-04-04T13:56:39.149Z,17.13
2019-04-04T13:59:08.910Z,18.03
2019-04-04T14:01:38.621Z,18.43
2019-04-04T14:04:08.482Z,17.33
2019-04-04T14:06:38.260Z,19.60
2019-04-04T14:09:12.010Z,22.33
2019-04-04T14:11:41.382Z,19.50
2019-04-04T14:14:12.106Z,18.03
2019-04-04T14:16:41.933Z,22.20
2019-04-04T14:19:11.808Z,15.93
2019-04-04T14:21:41.644Z,11.93
2019-04-04T14:24:13.777Z,18.73
2019-04-04T14:26:45.755Z,18.17
2019-04-04T14:29:26.648Z,18.23
2019-04-04T14:31:45.806Z,24.13
2019-04-04T14:34:15.852Z,17.70
2019-04-04T14:36:45.678Z,14.17
2019-04-04T14:39:15.570Z,16.00
2019-04-04T14:41:45.322Z,25.87
2019-04-04T14:44:15.682Z,26.67
2019-04-04T14:46:45.744Z,60.50
2019-04-04T14:49:15.577Z,15.77
2019-04-04T14:51:45.412Z,28.70
2019-04-04T14:54:15.288Z,48.00
2019-04-04T14:56:45.180Z,15.17
2019-04-04T14:59:15.076Z,27.23
2019-04-04T15:01:44.812Z,18.37
2019-04-04T15:04:14.598Z,21.63
2019-04-04T15:06:44.316Z,14.93
2019-04-04T15:09:15.189Z,16.37
2019-04-04T15:11:44.955Z,31.53
2019-04-04T15:14:14.723Z,59.93
2019-04-04T15:16:44.510Z,33.00
2019-04-04T15:19:14.232Z,64.20
2019-04-04T15:21:43.995Z,26.27
2019-04-04T15:24:13.724Z,23.57
2019-04-04T15:26:43.600Z,28.10
2019-04-04T15:29:13.325Z,34.67
2019-04-04T15:31:43.170Z,53.07
2019-04-04T15:34:13.012Z,62.90
2019-04-04T15:36:42.869Z,77.30
2019-04-04T15:39:12.732Z,30.30
2019-04-04T15:41:42.875Z,22.97
2019-04-04T15:44:12.725Z,16.43
2019-04-04T15:46:42.682Z,23.07
2019-04-04T15:49:12.419Z,68.83
2019-04-04T15:51:42.187Z,45.10
2019-04-04T15:54:11.918Z,21.37
2019-04-04T15:56:41.771Z,23.77
2019-04-04T15:59:11.497Z,52.70
2019-04-04T16:01:41.368Z,24.97
2019-04-04T16:04:11.085Z,22.33
2019-04-04T16:06:40.850Z,20.67
2019-04-04T16:09:10.600Z,23.20
2019-04-04T16:11:49.282Z,16.30
2019-04-04T16:14:11.974Z,24.90
2019-04-04T16:16:41.865Z,28.03
2019-04-04T16:19:11.580Z,16.07
2019-04-04T16:21:41.422Z,10.57
2019-04-04T16:24:11.246Z,10.13
2019-04-04T16:26:41.119Z,16.73
2019-04-04T16:29:10.932Z,18.93
2019-04-04T16:31:40.722Z,14.80
2019-04-04T16:34:10.545Z,14.70
2019-04-04T16:36:40.393Z,36.07
2019-04-04T16:39:10.261Z,24.43
2019-04-04T16:41:40.416Z,19.33
2019-04-04T16:44:10.286Z,12.93
2019-04-04T16:46:40.089Z,32.20
2019-04-04T16:49:09.950Z,26.30
2019-04-04T16:51:41.427Z,24.43
2019-04-04T16:54:11.194Z,23.37
2019-04-04T16:56:46.951Z,28.63
2019-04-04T16:59:17.016Z,25.80
2019-04-04T17:01:46.903Z,21.77
2019-04-04T17:04:16.726Z,28.07
2019-04-04T17:06:46.599Z,32.83
2019-04-04T17:09:16.426Z,25.13
2019-04-04T17:11:46.186Z,28.33
2019-04-04T17:14:16.059Z,28.60
2019-04-04T17:16:45.939Z,65.03
2019-04-04T17:19:15.819Z,367.40
2019-04-04T17:21:48.888Z,100.00
2019-04-04T17:24:18.693Z,229.13
2019-04-04T17:26:48.591Z,359.20
2019-04-04T17:29:18.471Z,105.40
2019-04-04T17:31:48.255Z,124.37
2019-04-04T17:34:18.134Z,701.73
2019-04-04T17:36:47.996Z,1174.43
2019-04-04T17:39:18.023Z,630.50
2019-04-04T17:41:49.777Z,264.70
2019-04-04T17:44:20.251Z,708.57
2019-04-04T17:46:50.773Z,248.07
2019-04-04T17:49:23.258Z,293.57
2019-04-04T17:51:54.079Z,218.27
2019-04-04T17:54:24.798Z,171.03
2019-04-04T17:56:54.934Z,84.73
2019-04-04T17:59:24.688Z,115.47
2019-04-04T18:01:54.833Z,120.87
2019-04-04T18:04:24.594Z,160.47
2019-04-04T18:06:54.456Z,91.77
2019-04-04T18:09:31.635Z,78.37
2019-04-04T18:11:57.815Z,45.67
2019-04-04T18:14:27.713Z,45.03
2019-04-04T18:16:58.528Z,68.70
2019-04-04T18:19:28.606Z,73.97
2019-04-04T18:21:59.297Z,50.93
2019-04-04T18:24:30.429Z,47.17
2019-04-04T18:27:01.018Z,164.70
2019-04-04T18:29:31.051Z,153.60
2019-04-04T18:32:00.775Z,92.87
2019-04-04T18:34:30.636Z,94.33
2019-04-04T18:37:00.364Z,83.63
2019-04-04T18:39:30.262Z,412.33
2019-04-04T18:41:59.998Z,78.20
2019-04-04T18:48:17.704Z,62.13
2019-04-04T18:55:03.886Z,50.03
2019-04-04T18:56:04.186Z,62.50
2019-04-04T18:58:41.021Z,36.90
2019-04-04T19:01:14.224Z,26.77
2019-04-04T19:04:00.350Z,64.93
2019-04-04T19:06:33.423Z,60.53
2019-04-04T19:09:15.207Z,77.47
2019-04-04T19:14:31.544Z,126.43
2019-04-04T19:17:01.319Z,146.83
2019-04-04T19:19:49.387Z,459.80
2019-04-04T19:25:07.037Z,36.30
2019-04-04T19:27:40.071Z,56.83
2019-04-04T19:30:15.325Z,42.73
2019-04-04T19:32:49.623Z,54.00
2019-04-04T19:35:22.568Z,40.17
2019-04-04T19:41:15.520Z,41.37
2019-04-04T19:50:39.309Z,39.37
2019-04-04T19:56:37.900Z,53.70
2019-04-04T19:59:09.110Z,52.00
2019-04-04T20:38:46.122Z,60.97
2019-04-04T20:41:33.659Z,53.10
2019-04-04T20:44:09.308Z,51.57
2019-04-04T21:13:57.032Z,79.73
2019-04-04T21:16:26.800Z,49.93
2019-04-04T21:18:56.588Z,63.33
2019-04-04T21:21:26.359Z,54.97
2019-04-04T21:23:56.108Z,48.07
2019-04-04T21:26:25.977Z,49.13
2019-04-04T21:28:55.739Z,62.77
2019-04-04T21:31:25.606Z,160.40
2019-04-04T21:33:55.467Z,48.13
2019-04-04T21:36:25.324Z,43.50
2019-04-04T21:38:55.195Z,61.20
2019-04-04T21:41:25.063Z,41.13
2019-04-04T21:43:54.917Z,41.00
2019-04-04T21:46:24.789Z,48.33
2019-04-04T21:48:54.544Z,49.53
2019-04-04T21:51:24.294Z,54.77
2019-04-04T21:53:54.164Z,46.30
2019-04-04T21:56:23.920Z,43.90
2019-04-04T21:58:53.687Z,37.83
2019-04-04T22:01:23.451Z,52.57
2019-04-04T22:03:53.341Z,52.97
2019-04-04T22:06:23.206Z,52.00
2019-04-04T22:08:52.991Z,46.13
2019-04-04T22:11:22.748Z,39.27
2019-04-04T22:13:52.633Z,35.67
2019-04-04T22:16:22.496Z,42.57
2019-04-04T22:18:52.357Z,39.47
2019-04-04T22:21:22.225Z,48.40
2019-04-04T22:23:51.945Z,42.33
2019-04-04T22:26:21.713Z,35.47
2019-04-04T22:28:51.544Z,40.43
2019-04-04T22:31:21.398Z,39.30
2019-04-04T22:33:51.228Z,43.90
2019-04-04T22:36:20.974Z,40.13
2019-04-04T22:38:50.739Z,45.27
2019-04-04T22:41:20.608Z,47.83
2019-04-04T22:44:02.699Z,71.70
2019-04-04T22:46:22.040Z,44.47
2019-04-04T22:48:52.010Z,51.00
2019-04-04T22:51:21.875Z,43.20
2019-04-04T22:53:51.736Z,41.07
2019-04-04T22:56:21.601Z,41.67
2019-04-04T22:58:51.476Z,43.03
2019-04-04T23:01:21.333Z,39.60
2019-04-04T23:03:51.182Z,40.33
2019-04-04T23:06:21.072Z,37.30
2019-04-04T23:08:50.802Z,44.37
2019-04-04T23:11:20.664Z,44.80
2019-04-04T23:20:15.267Z,41.03
2019-04-04T23:22:52.778Z,42.40
2019-04-04T23:25:16.897Z,43.60
2019-04-04T23:27:46.759Z,192.13
2019-04-04T23:30:16.626Z,45.30
2019-04-04T23:32:46.553Z,344.70
2019-04-04T23:35:16.837Z,49.77
2019-04-04T23:37:46.794Z,44.00
2019-04-04T23:40:16.649Z,61.87
2019-04-04T23:42:46.523Z,99.30
2019-04-04T23:45:16.399Z,57.87
2019-04-04T23:47:46.254Z,69.47
2019-04-04T23:50:16.401Z,53.07
2019-04-04T23:52:46.267Z,70.43
2019-04-04T23:55:16.139Z,65.93
2019-04-04T23:57:46.004Z,65.20
